createdAt,value
2016-03-24T00:00:41.047Z,1007.79
2016-03-24T00:01:41.050Z,1007.75
2016-03-24T00:02:41.052Z,1007.75
2016-03-24T00:03:41.055Z,1007.8
2016-03-24T00:04:41.074Z,1007.81
2016-03-24T00:05:41.077Z,1007.81
2016-03-24T00:06:41.079Z,1007.82
2016-03-24T00:07:41.097Z,1007.8
2016-03-24T00:08:41.099Z,1007.82
2016-03-24T00:09:41.119Z,1007.79
2016-03-24T00:10:41.105Z,1007.8
2016-03-24T00:11:41.108Z,1007.81
2016-03-24T00:12:41.126Z,1007.82
2016-03-24T00:13:41.129Z,1007.82
2016-03-24T00:14:41.132Z,1007.83
2016-03-24T00:15:41.135Z,1007.8
2016-03-24T00:16:41.137Z,1007.76
2016-03-24T00:17:41.156Z,1007.75
2016-03-24T00:18:41.174Z,1007.74
2016-03-24T00:19:41.176Z,1007.76
2016-03-24T00:20:41.179Z,1007.74
2016-03-24T00:21:41.181Z,1007.77
2016-03-24T00:22:41.185Z,1007.76
2016-03-24T00:23:41.187Z,1007.78
2016-03-24T00:24:41.190Z,1007.81
2016-03-24T00:25:41.208Z,1007.79
2016-03-24T00:26:41.211Z,1007.79
2016-03-24T00:27:41.214Z,1007.77
2016-03-24T00:28:41.217Z,1007.75
2016-03-24T00:29:41.234Z,1007.77
2016-03-24T00:30:41.237Z,1007.74
2016-03-24T00:31:41.240Z,1007.77
2016-03-24T00:32:41.243Z,1007.78
2016-03-24T00:33:41.245Z,1007.81
2016-03-24T00:34:41.263Z,1007.74
2016-03-24T00:35:41.266Z,1007.73
2016-03-24T00:36:41.269Z,1007.72
2016-03-24T00:37:41.272Z,1007.72
2016-03-24T00:38:41.290Z,1007.74
2016-03-24T00:39:41.293Z,1007.74
2016-03-24T00:40:41.295Z,1007.71
2016-03-24T00:41:41.299Z,1007.68
2016-03-24T00:42:41.301Z,1007.66
2016-03-24T00:43:41.319Z,1007.6
2016-03-24T00:44:41.321Z,1007.57
2016-03-24T00:45:41.372Z,1007.57
2016-03-24T00:46:41.327Z,1007.53
2016-03-24T00:47:41.346Z,1007.57
2016-03-24T00:48:41.348Z,1007.55
2016-03-24T00:49:41.351Z,1007.53
2016-03-24T00:50:41.354Z,1007.43
2016-03-24T00:51:41.372Z,1007.4
2016-03-24T00:52:41.390Z,1007.39
2016-03-24T00:53:41.377Z,1007.35
2016-03-24T00:54:41.380Z,1007.36
2016-03-24T00:55:41.383Z,1007.36
2016-03-24T00:56:41.401Z,1007.35
2016-03-24T00:57:41.403Z,1007.39
2016-03-24T00:58:41.406Z,1007.35
2016-03-24T00:59:41.409Z,1007.34
2016-03-24T01:00:41.411Z,1007.37
2016-03-24T01:01:41.430Z,1007.41
2016-03-24T01:02:41.432Z,1007.47
2016-03-24T01:03:41.467Z,1007.48
2016-03-24T01:04:41.453Z,1007.53
2016-03-24T01:05:41.456Z,1007.54
2016-03-24T01:06:41.458Z,1007.52
2016-03-24T01:07:41.461Z,1007.56
2016-03-24T01:08:41.463Z,1007.49
2016-03-24T01:09:41.483Z,1007.45
2016-03-24T01:10:41.485Z,1007.48
2016-03-24T01:11:41.488Z,1007.45
2016-03-24T01:12:41.491Z,1007.44
2016-03-24T01:13:41.494Z,1007.43
2016-03-24T01:14:41.512Z,1007.43
2016-03-24T01:15:41.515Z,1007.42
2016-03-24T01:16:41.517Z,1007.43
2016-03-24T01:17:41.520Z,1007.38
2016-03-24T01:18:41.537Z,1007.37
2016-03-24T01:19:41.540Z,1007.4
2016-03-24T01:20:41.543Z,1007.42
2016-03-24T01:21:41.561Z,1007.41
2016-03-24T01:22:41.564Z,1007.46
2016-03-24T01:23:41.583Z,1007.44
2016-03-24T01:24:41.570Z,1007.46
2016-03-24T01:25:41.572Z,1007.46
2016-03-24T01:26:41.592Z,1007.46
2016-03-24T01:27:41.594Z,1007.46
2016-03-24T01:28:41.597Z,1007.42
2016-03-24T01:29:41.599Z,1007.42
2016-03-24T01:30:41.602Z,1007.43
2016-03-24T01:31:41.619Z,1007.43
2016-03-24T01:32:41.623Z,1007.47
2016-03-24T01:33:41.625Z,1007.47
2016-03-24T01:34:41.628Z,1007.38
2016-03-24T01:35:41.646Z,1007.4
2016-03-24T01:36:41.649Z,1007.38
2016-03-24T01:37:41.652Z,1007.4
2016-03-24T01:38:41.655Z,1007.37
2016-03-24T01:39:41.657Z,1007.38
2016-03-24T01:40:41.675Z,1007.35
2016-03-24T01:41:41.678Z,1007.3
2016-03-24T01:42:41.680Z,1007.26
2016-03-24T01:43:41.683Z,1007.23
2016-03-24T01:44:41.685Z,1007.24
2016-03-24T01:45:41.751Z,1007.25
2016-03-24T01:46:41.707Z,1007.21
2016-03-24T01:47:41.710Z,1007.15
2016-03-24T01:48:41.712Z,1007.14
2016-03-24T01:49:41.731Z,1007.16
2016-03-24T01:50:41.733Z,1007.15
2016-03-24T01:51:41.752Z,1007.2
2016-03-24T01:52:41.754Z,1007.17
2016-03-24T01:53:41.757Z,1007.18
2016-03-24T01:54:41.760Z,1007.18
2016-03-24T01:55:41.763Z,1007.17
2016-03-24T01:56:41.765Z,1007.2
2016-03-24T01:57:41.784Z,1007.22
2016-03-24T01:58:41.786Z,1007.22
2016-03-24T01:59:41.789Z,1007.24
2016-03-24T02:00:41.792Z,1007.29
2016-03-24T02:01:41.794Z,1007.28
2016-03-24T02:02:41.813Z,1007.29
2016-03-24T02:03:41.924Z,1007.33
2016-03-24T02:04:41.818Z,1007.28
2016-03-24T02:05:41.821Z,1007.3
2016-03-24T02:06:41.824Z,1007.27
2016-03-24T02:07:41.841Z,1007.28
2016-03-24T02:08:41.844Z,1007.27
2016-03-24T02:09:41.847Z,1007.25
2016-03-24T02:10:41.850Z,1007.28
2016-03-24T02:11:41.852Z,1007.27
2016-03-24T02:12:41.871Z,1007.27
2016-03-24T02:13:41.873Z,1007.27
2016-03-24T02:14:41.877Z,1007.28
2016-03-24T02:15:41.879Z,1007.23
2016-03-24T02:16:41.881Z,1007.25
2016-03-24T02:17:41.899Z,1007.2
2016-03-24T02:18:41.902Z,1007.2
2016-03-24T02:19:41.905Z,1007.24
2016-03-24T02:20:41.908Z,1007.15
2016-03-24T02:21:41.926Z,1007.11
2016-03-24T02:22:41.929Z,1007.11
2016-03-24T02:23:41.948Z,1007.1
2016-03-24T02:24:41.951Z,1007.09
2016-03-24T02:25:41.953Z,1007.09
2016-03-24T02:26:41.956Z,1007.04
2016-03-24T02:27:41.958Z,1007.03
2016-03-24T02:28:41.961Z,1007.01
2016-03-24T02:29:41.979Z,1007.08
2016-03-24T02:30:41.981Z,1007.05
2016-03-24T02:31:41.984Z,1007.11
2016-03-24T02:32:41.986Z,1007.08
2016-03-24T02:33:41.989Z,1007.1
2016-03-24T02:34:42.008Z,1007.07
2016-03-24T02:35:42.011Z,1007.06
2016-03-24T02:36:42.013Z,1007.05
2016-03-24T02:37:42.016Z,1007.11
2016-03-24T02:38:42.019Z,1007.07
2016-03-24T02:39:42.038Z,1007.11
2016-03-24T02:40:42.041Z,1007.06
2016-03-24T02:41:42.043Z,1007.08
2016-03-24T02:42:42.061Z,1007.09
2016-03-24T02:43:42.064Z,1007.1
2016-03-24T02:44:42.066Z,1007.14
2016-03-24T02:47:28.668Z,1007.13
2016-03-24T02:48:28.687Z,1007.16
2016-03-24T02:49:28.690Z,1007.14
2016-03-24T02:50:28.692Z,1007.1
2016-03-24T02:51:28.695Z,1007.09
2016-03-24T02:52:28.698Z,1007.13
2016-03-24T02:53:28.732Z,1007.13
2016-03-24T02:54:28.718Z,1007.15
2016-03-24T02:55:28.721Z,1007.15
2016-03-24T02:56:28.723Z,1007.19
2016-03-24T02:57:28.742Z,1007.2
2016-03-24T02:58:28.745Z,1007.21
2016-03-24T02:59:28.747Z,1007.2
2016-03-24T03:00:28.750Z,1007.22
2016-03-24T03:01:28.752Z,1007.26
2016-03-24T03:02:28.770Z,1007.23
2016-03-24T03:03:28.773Z,1007.28
2016-03-24T03:04:28.776Z,1007.26
2016-03-24T03:05:28.778Z,1007.3
2016-03-24T03:06:28.814Z,1007.31
2016-03-24T03:07:28.800Z,1007.28
2016-03-24T03:08:28.803Z,1007.38
2016-03-24T03:09:28.805Z,1007.36
2016-03-24T03:10:28.808Z,1007.41
2016-03-24T03:11:28.826Z,1007.37
2016-03-24T03:12:28.830Z,1007.4
2016-03-24T03:13:28.832Z,1007.41
2016-03-24T03:14:28.835Z,1007.43
2016-03-24T03:15:28.837Z,1007.41
2016-03-24T03:16:28.855Z,1007.43
2016-03-24T03:17:28.857Z,1007.41
2016-03-24T03:18:28.861Z,1007.4
2016-03-24T03:19:28.879Z,1007.4
2016-03-24T03:20:28.866Z,1007.41
2016-03-24T03:21:28.885Z,1007.41
2016-03-24T03:22:28.888Z,1007.41
2016-03-24T03:23:28.890Z,1007.4
2016-03-24T03:24:28.909Z,1007.43
2016-03-24T03:25:28.911Z,1007.42
2016-03-24T03:26:28.914Z,1007.41
2016-03-24T03:27:28.917Z,1007.4
2016-03-24T03:28:28.935Z,1007.45
2016-03-24T03:29:28.937Z,1007.42
2016-03-24T03:32:34.851Z,1007.43
2016-03-24T03:33:34.870Z,1007.44
2016-03-24T03:34:34.873Z,1007.4
2016-03-24T03:35:34.876Z,1007.43
2016-03-24T03:36:34.878Z,1007.44
2016-03-24T03:37:34.897Z,1007.44
2016-03-24T03:38:34.899Z,1007.42
2016-03-24T03:39:34.902Z,1007.4
2016-03-24T03:40:34.904Z,1007.42
2016-03-24T03:41:34.908Z,1007.42
2016-03-24T03:42:34.925Z,1007.43
2016-03-24T03:43:34.928Z,1007.41
2016-03-24T03:44:34.930Z,1007.4
2016-03-24T03:45:34.933Z,1007.41
2016-03-24T03:46:34.935Z,1007.43
2016-03-24T03:47:34.954Z,1007.35
2016-03-24T03:48:34.957Z,1007.38
2016-03-24T03:49:34.960Z,1007.39
2016-03-24T03:50:34.962Z,1007.38
2016-03-24T03:51:34.982Z,1007.36
2016-03-24T03:52:34.984Z,1007.35
2016-03-24T03:53:34.987Z,1007.35
2016-03-24T03:54:34.989Z,1007.37
2016-03-24T03:55:34.992Z,1007.39
2016-03-24T03:56:35.009Z,1007.38
2016-03-24T03:57:35.013Z,1007.32
2016-03-24T03:58:35.015Z,1007.34
2016-03-24T03:59:35.018Z,1007.29
2016-03-24T04:00:35.020Z,1007.34
2016-03-24T04:01:35.039Z,1007.33
2016-03-24T04:02:35.042Z,1007.32
2016-03-24T04:03:35.045Z,1007.21
2016-03-24T04:04:35.047Z,1007.26
2016-03-24T04:05:35.065Z,1007.28
2016-03-24T04:06:35.068Z,1007.23
2016-03-24T04:07:35.075Z,1007.24
2016-03-24T04:08:35.078Z,1007.16
2016-03-24T04:09:35.080Z,1007.2
2016-03-24T04:10:35.083Z,1007.18
2016-03-24T04:11:35.101Z,1007.19
2016-03-24T04:12:35.105Z,1007.15
2016-03-24T04:13:35.107Z,1007.24
2016-03-24T04:14:35.110Z,1007.24
2016-03-24T04:15:35.112Z,1007.24
2016-03-24T04:16:35.116Z,1007.2
2016-03-24T04:17:35.134Z,1007.21
2016-03-24T04:18:35.137Z,1007.2
2016-03-24T04:19:35.139Z,1007.22
2016-03-24T04:20:35.157Z,1007.22
2016-03-24T04:21:35.160Z,1007.25
2016-03-24T04:22:35.163Z,1007.27
2016-03-24T04:23:35.165Z,1007.24
2016-03-24T04:24:35.168Z,1007.24
2016-03-24T04:25:35.187Z,1007.23
2016-03-24T04:26:35.189Z,1007.21
2016-03-24T04:27:35.192Z,1007.24
2016-03-24T04:28:35.195Z,1007.18
2016-03-24T04:29:35.197Z,1007.18
2016-03-24T04:30:35.215Z,1007.19
2016-03-24T04:31:35.218Z,1007.2
2016-03-24T04:32:35.220Z,1007.19
2016-03-24T04:33:35.223Z,1007.23
2016-03-24T04:34:35.225Z,1007.22
2016-03-24T04:35:35.244Z,1007.23
2016-03-24T04:36:35.247Z,1007.24
2016-03-24T04:37:35.250Z,1007.28
2016-03-24T04:38:35.252Z,1007.25
2016-03-24T04:39:35.271Z,1007.23
2016-03-24T04:40:35.273Z,1007.22
2016-03-24T04:41:35.276Z,1007.26
2016-03-24T04:42:35.279Z,1007.21
2016-03-24T04:43:35.282Z,1007.21
2016-03-24T04:44:35.299Z,1007.23
2016-03-24T04:45:35.302Z,1007.22
2016-03-24T04:46:35.305Z,1007.2
2016-03-24T04:47:35.308Z,1007.2
2016-03-24T04:48:35.310Z,1007.22
2016-03-24T04:49:35.329Z,1007.15
2016-03-24T04:50:35.331Z,1007.16
2016-03-24T04:51:35.335Z,1007.19
2016-03-24T04:52:35.353Z,1007.18
2016-03-24T04:53:35.356Z,1007.19
2016-03-24T04:54:35.358Z,1007.19
2016-03-24T04:55:35.361Z,1007.19
2016-03-24T04:56:35.378Z,1007.24
2016-03-24T04:57:35.367Z,1007.21
2016-03-24T04:58:35.384Z,1007.23
2016-03-24T04:59:35.387Z,1007.22
2016-03-24T05:00:35.389Z,1007.24
2016-03-24T05:01:35.409Z,1007.24
2016-03-24T05:02:35.395Z,1007.24
2016-03-24T05:03:35.414Z,1007.32
2016-03-24T05:04:35.416Z,1007.31
2016-03-24T05:05:35.419Z,1007.32
2016-03-24T05:06:35.421Z,1007.27
2016-03-24T05:07:35.440Z,1007.28
2016-03-24T05:08:35.442Z,1007.21
2016-03-24T05:09:35.445Z,1007.24
2016-03-24T05:10:35.447Z,1007.22
2016-03-24T05:11:35.466Z,1007.23
2016-03-24T05:12:35.469Z,1007.23
2016-03-24T05:13:35.487Z,1007.25
2016-03-24T05:14:35.474Z,1007.24
2016-03-24T05:15:35.477Z,1007.25
2016-03-24T05:16:35.480Z,1007.24
2016-03-24T05:17:35.498Z,1007.23
2016-03-24T05:18:35.501Z,1007.22
2016-03-24T05:19:35.504Z,1007.21
2016-03-24T05:20:35.506Z,1007.21
2016-03-24T05:21:35.509Z,1007.2
2016-03-24T05:22:35.527Z,1007.2
2016-03-24T05:23:35.529Z,1007.26
2016-03-24T05:24:35.532Z,1007.26
2016-03-24T05:25:35.534Z,1007.23
2016-03-24T05:26:35.553Z,1007.23
2016-03-24T05:27:35.556Z,1007.24
2016-03-24T05:28:35.559Z,1007.23
2016-03-24T05:29:35.577Z,1007.27
2016-03-24T05:30:35.564Z,1007.24
2016-03-24T05:31:35.583Z,1007.28
2016-03-24T05:32:35.586Z,1007.26
2016-03-24T05:33:35.588Z,1007.26
2016-03-24T05:34:35.591Z,1007.25
2016-03-24T05:35:35.593Z,1007.25
2016-03-24T05:36:35.612Z,1007.26
2016-03-24T05:37:35.614Z,1007.27
2016-03-24T05:38:35.617Z,1007.29
2016-03-24T05:39:35.619Z,1007.29
2016-03-24T05:40:35.638Z,1007.3
2016-03-24T05:41:35.640Z,1007.35
2016-03-24T05:42:35.644Z,1007.39
2016-03-24T05:43:35.646Z,1007.42
2016-03-24T05:44:35.649Z,1007.41
2016-03-24T05:45:35.652Z,1007.41
2016-03-24T05:46:35.670Z,1007.41
2016-03-24T05:47:35.672Z,1007.44
2016-03-24T05:48:35.675Z,1007.48
2016-03-24T05:49:35.677Z,1007.49
2016-03-24T05:50:35.680Z,1007.5
2016-03-24T05:51:35.699Z,1007.45
2016-03-24T05:52:35.702Z,1007.46
2016-03-24T05:53:35.704Z,1007.49
2016-03-24T05:54:35.707Z,1007.49
2016-03-24T05:55:35.725Z,1007.5
2016-03-24T05:56:35.728Z,1007.49
2016-03-24T05:57:35.731Z,1007.48
2016-03-24T05:58:35.734Z,1007.51
2016-03-24T05:59:35.751Z,1007.51
2016-03-24T06:00:35.770Z,1007.53
2016-03-24T06:01:35.757Z,1007.48
2016-03-24T06:02:35.759Z,1007.48
2016-03-24T06:03:35.762Z,1007.49
2016-03-24T06:04:35.764Z,1007.48
2016-03-24T06:05:35.783Z,1007.48
2016-03-24T06:06:35.786Z,1007.54
2016-03-24T06:07:35.789Z,1007.56
2016-03-24T06:08:35.808Z,1007.54
2016-03-24T06:09:35.810Z,1007.55
2016-03-24T06:10:35.812Z,1007.55
2016-03-24T06:11:35.815Z,1007.56
2016-03-24T06:12:35.818Z,1007.53
2016-03-24T06:13:35.836Z,1007.55
2016-03-24T06:14:35.838Z,1007.57
2016-03-24T06:15:35.841Z,1007.58
2016-03-24T06:16:35.844Z,1007.56
2016-03-24T06:17:35.847Z,1007.55
2016-03-24T06:18:35.849Z,1007.6
2016-03-24T06:19:35.852Z,1007.57
2016-03-24T06:20:35.885Z,1007.61
2016-03-24T06:21:35.873Z,1007.62
2016-03-24T06:22:35.876Z,1007.61
2016-03-24T06:23:35.894Z,1007.65
2016-03-24T06:24:35.896Z,1007.64
2016-03-24T06:25:35.899Z,1007.67
2016-03-24T06:26:35.901Z,1007.7
2016-03-24T06:27:35.905Z,1007.7
2016-03-24T06:28:35.907Z,1007.74
2016-03-24T06:29:35.926Z,1007.73
2016-03-24T06:30:35.928Z,1007.73
2016-03-24T06:31:35.932Z,1007.73
2016-03-24T06:32:35.934Z,1007.72
2016-03-24T06:33:35.937Z,1007.77
2016-03-24T06:34:35.955Z,1007.77
2016-03-24T06:35:35.958Z,1007.78
2016-03-24T06:36:35.961Z,1007.76
2016-03-24T06:37:35.979Z,1007.76
2016-03-24T06:38:35.981Z,1007.79
2016-03-24T06:39:35.984Z,1007.81
2016-03-24T06:40:35.986Z,1007.8
2016-03-24T06:41:35.989Z,1007.86
2016-03-24T06:42:35.992Z,1007.86
2016-03-24T06:43:36.011Z,1007.86
2016-03-24T06:44:36.013Z,1007.84
2016-03-24T06:45:36.016Z,1007.87
2016-03-24T06:46:36.019Z,1007.86
2016-03-24T06:47:36.022Z,1007.86
2016-03-24T06:48:36.024Z,1007.86
2016-03-24T06:49:36.042Z,1007.91
2016-03-24T06:50:36.060Z,1007.9
2016-03-24T06:51:36.063Z,1007.89
2016-03-24T06:52:36.066Z,1007.88
2016-03-24T06:53:36.068Z,1007.86
2016-03-24T06:54:36.087Z,1007.91
2016-03-24T06:55:36.073Z,1007.91
2016-03-24T06:56:36.093Z,1007.92
2016-03-24T06:57:36.095Z,1007.92
2016-03-24T06:58:36.098Z,1007.89
2016-03-24T06:59:36.100Z,1007.88
2016-03-24T07:00:36.104Z,1007.84
2016-03-24T07:01:36.106Z,1007.84
2016-03-24T07:02:36.124Z,1007.88
2016-03-24T07:03:36.126Z,1007.87
2016-03-24T07:04:36.129Z,1007.89
2016-03-24T07:05:36.148Z,1007.87
2016-03-24T07:06:36.151Z,1007.88
2016-03-24T07:07:36.153Z,1007.89
2016-03-24T07:08:36.156Z,1007.87
2016-03-24T07:09:36.159Z,1007.9
2016-03-24T07:10:36.162Z,1007.88
2016-03-24T07:11:36.164Z,1007.91
2016-03-24T07:12:36.182Z,1007.91
2016-03-24T07:13:36.185Z,1007.87
2016-03-24T07:14:36.203Z,1007.87
2016-03-24T07:15:36.206Z,1007.88
2016-03-24T07:16:36.208Z,1007.92
2016-03-24T07:17:36.211Z,1007.96
2016-03-24T07:18:36.213Z,1007.98
2016-03-24T07:19:36.217Z,1007.94
2016-03-24T07:20:36.235Z,1007.98
2016-03-24T07:21:36.237Z,1007.98
2016-03-24T07:22:36.241Z,1007.97
2016-03-24T07:23:36.243Z,1008.01
2016-03-24T07:24:36.262Z,1008.04
2016-03-24T07:25:36.265Z,1008.06
2016-03-24T07:26:36.267Z,1008.08
2016-03-24T07:27:36.270Z,1008.1
2016-03-24T07:28:36.273Z,1008.09
2016-03-24T07:29:36.276Z,1008.06
2016-03-24T07:30:36.293Z,1008.07
2016-03-24T07:31:36.295Z,1008.05
2016-03-24T07:32:36.299Z,1008.08
2016-03-24T07:33:36.301Z,1008.06
2016-03-24T07:34:36.335Z,1008.06
2016-03-24T07:35:36.323Z,1008.06
2016-03-24T07:36:36.325Z,1008.07
2016-03-24T07:37:36.328Z,1008.06
2016-03-24T07:38:36.330Z,1008.12
2016-03-24T07:39:36.348Z,1008.08
2016-03-24T07:40:36.351Z,1008.1
2016-03-24T07:41:36.353Z,1008.07
2016-03-24T07:42:36.356Z,1008.06
2016-03-24T07:43:36.359Z,1008.07
2016-03-24T07:44:36.378Z,1008.08
2016-03-24T07:45:36.380Z,1008.08
2016-03-24T07:46:36.383Z,1008.06
2016-03-24T07:47:36.385Z,1008.06
2016-03-24T07:48:36.389Z,1008.07
2016-03-24T07:49:36.407Z,1008.04
2016-03-24T07:50:36.409Z,1008
2016-03-24T07:51:36.413Z,1008.02
2016-03-24T07:52:36.415Z,1008.06
2016-03-24T07:53:36.433Z,1008.04
2016-03-24T07:54:36.436Z,1008.02
2016-03-24T07:55:36.438Z,1008.02
2016-03-24T07:56:36.441Z,1008.03
2016-03-24T07:57:36.460Z,1008.01
2016-03-24T07:58:36.463Z,1008.03
2016-03-24T07:59:36.465Z,1008.05
2016-03-24T08:00:36.467Z,1008.08
2016-03-24T08:01:36.471Z,1008.08
2016-03-24T08:02:36.489Z,1008.06
2016-03-24T08:03:36.492Z,1008.11
2016-03-24T08:04:36.510Z,1008.11
2016-03-24T08:05:36.497Z,1008.1
2016-03-24T08:06:36.499Z,1008.12
2016-03-24T08:07:36.512Z,1008.15
2016-03-24T08:08:36.514Z,1008.12
2016-03-24T08:09:36.533Z,1008.14
2016-03-24T08:10:36.536Z,1008.13
2016-03-24T08:11:36.538Z,1008.08
2016-03-24T08:12:36.541Z,1008.14
2016-03-24T08:13:36.543Z,1008.13
2016-03-24T08:14:36.562Z,1008.12
2016-03-24T08:15:36.565Z,1008.17
2016-03-24T08:16:36.568Z,1008.15
2016-03-24T08:17:36.585Z,1008.17
2016-03-24T08:18:36.588Z,1008.17
2016-03-24T08:19:36.607Z,1008.19
2016-03-24T08:20:36.594Z,1008.18
2016-03-24T08:21:36.612Z,1008.2
2016-03-24T08:22:36.614Z,1008.23
2016-03-24T08:23:36.618Z,1008.25
2016-03-24T08:24:36.620Z,1008.27
2016-03-24T08:25:36.638Z,1008.26
2016-03-24T08:26:36.641Z,1008.25
2016-03-24T08:27:36.643Z,1008.23
2016-03-24T08:28:36.646Z,1008.24
2016-03-24T08:29:36.665Z,1008.2
2016-03-24T08:30:36.667Z,1008.28
2016-03-24T08:31:36.670Z,1008.29
2016-03-24T08:32:36.673Z,1008.26
2016-03-24T08:33:36.691Z,1008.3
2016-03-24T08:34:36.683Z,1008.3
2016-03-24T08:35:36.670Z,1008.3
2016-03-24T08:36:36.671Z,1008.33
2016-03-24T08:37:36.659Z,1008.31
2016-03-24T08:38:36.645Z,1008.32
2016-03-24T08:39:36.639Z,1008.31
2016-03-24T08:40:36.653Z,1008.25
2016-03-24T08:41:36.649Z,1008.3
2016-03-24T08:42:36.647Z,1008.3
2016-03-24T08:43:36.643Z,1008.33
2016-03-24T08:44:36.659Z,1008.3
2016-03-24T08:45:36.659Z,1008.33
2016-03-24T08:46:36.675Z,1008.29
2016-03-24T08:47:36.662Z,1008.29
2016-03-24T08:48:36.677Z,1008.29
2016-03-24T08:49:36.804Z,1008.3
2016-03-24T08:50:36.696Z,1008.29
2016-03-24T08:51:36.699Z,1008.31
2016-03-24T08:52:36.700Z,1008.32
2016-03-24T08:53:36.718Z,1008.3
2016-03-24T08:54:36.705Z,1008.33
2016-03-24T08:55:36.722Z,1008.31
2016-03-24T08:56:36.725Z,1008.34
2016-03-24T08:57:36.726Z,1008.31
2016-03-24T08:58:36.745Z,1008.33
2016-03-24T08:59:36.747Z,1008.35
2016-03-24T09:00:36.750Z,1008.33
2016-03-24T09:01:36.753Z,1008.35
2016-03-24T09:02:36.772Z,1008.39
2016-03-24T09:03:36.774Z,1008.39
2016-03-24T09:04:36.792Z,1008.37
2016-03-24T09:05:36.780Z,1008.37
2016-03-24T09:06:36.797Z,1008.36
2016-03-24T09:07:36.800Z,1008.36
2016-03-24T09:08:36.802Z,1008.43
2016-03-24T09:09:36.821Z,1008.41
2016-03-24T09:10:36.824Z,1008.43
2016-03-24T09:11:36.827Z,1008.42
2016-03-24T09:12:36.829Z,1008.47
2016-03-24T09:13:36.848Z,1008.5
2016-03-24T09:14:36.851Z,1008.5
2016-03-24T09:15:36.868Z,1008.5
2016-03-24T09:16:36.871Z,1008.5
2016-03-24T09:17:36.874Z,1008.49
2016-03-24T09:18:36.876Z,1008.49
2016-03-24T09:19:36.879Z,1008.49
2016-03-24T09:20:36.898Z,1008.52
2016-03-24T09:21:36.901Z,1008.52
2016-03-24T09:22:36.903Z,1008.5
2016-03-24T09:23:36.906Z,1008.52
2016-03-24T09:24:36.924Z,1008.52
2016-03-24T09:25:36.926Z,1008.54
2016-03-24T09:26:36.929Z,1008.47
2016-03-24T09:27:36.932Z,1008.5
2016-03-24T09:28:36.951Z,1008.47
2016-03-24T09:29:36.953Z,1008.45
2016-03-24T09:30:36.956Z,1008.51
2016-03-24T09:31:36.974Z,1008.46
2016-03-24T09:32:36.977Z,1008.44
2016-03-24T09:33:36.980Z,1008.43
2016-03-24T09:34:36.982Z,1008.45
2016-03-24T09:35:37.000Z,1008.43
2016-03-24T09:36:37.003Z,1008.44
2016-03-24T09:37:37.006Z,1008.4
2016-03-24T09:38:37.024Z,1008.4
2016-03-24T09:39:37.027Z,1008.42
2016-03-24T09:40:37.030Z,1008.41
2016-03-24T09:41:37.048Z,1008.41
2016-03-24T09:42:37.051Z,1008.41
2016-03-24T09:43:37.054Z,1008.4
2016-03-24T09:44:37.057Z,1008.42
2016-03-24T09:45:37.074Z,1008.37
2016-03-24T09:46:37.077Z,1008.37
2016-03-24T09:47:37.080Z,1008.36
2016-03-24T09:48:37.082Z,1008.36
2016-03-24T09:49:37.101Z,1008.35
2016-03-24T09:50:37.103Z,1008.35
2016-03-24T09:51:37.106Z,1008.37
2016-03-24T09:52:37.124Z,1008.36
2016-03-24T09:53:37.126Z,1008.38
2016-03-24T09:54:37.130Z,1008.32
2016-03-24T09:55:37.132Z,1008.33
2016-03-24T09:56:37.150Z,1008.38
2016-03-24T09:57:37.154Z,1008.36
2016-03-24T09:58:37.156Z,1008.36
2016-03-24T09:59:37.174Z,1008.33
2016-03-24T10:00:37.178Z,1008.31
2016-03-24T10:01:37.180Z,1008.34
2016-03-24T10:02:37.183Z,1008.34
2016-03-24T10:03:37.201Z,1008.3
2016-03-24T10:04:37.203Z,1008.32
2016-03-24T10:05:37.206Z,1008.28
2016-03-24T10:06:37.225Z,1008.33
2016-03-24T10:07:37.227Z,1008.34
2016-03-24T10:08:37.229Z,1008.34
2016-03-24T10:09:37.233Z,1008.33
2016-03-24T10:10:37.251Z,1008.36
2016-03-24T10:11:37.254Z,1008.34
2016-03-24T10:12:37.257Z,1008.35
2016-03-24T10:13:37.260Z,1008.43
2016-03-24T10:14:37.277Z,1008.42
2016-03-24T10:15:37.296Z,1008.39
2016-03-24T10:16:37.282Z,1008.42
2016-03-24T10:17:37.301Z,1008.44
2016-03-24T10:18:37.304Z,1008.43
2016-03-24T10:19:37.307Z,1008.4
2016-03-24T10:20:37.309Z,1008.47
2016-03-24T10:21:37.327Z,1008.46
2016-03-24T10:22:37.346Z,1008.45
2016-03-24T10:23:37.333Z,1008.45
2016-03-24T10:24:37.351Z,1008.49
2016-03-24T10:25:37.353Z,1008.5
2016-03-24T10:26:37.356Z,1008.49
2016-03-24T10:27:37.359Z,1008.46
2016-03-24T10:28:37.378Z,1008.51
2016-03-24T10:29:37.380Z,1008.5
2016-03-24T10:30:37.384Z,1008.51
2016-03-24T10:31:37.401Z,1008.5
2016-03-24T10:32:37.404Z,1008.53
2016-03-24T10:33:37.406Z,1008.49
2016-03-24T10:34:37.425Z,1008.49
2016-03-24T10:35:37.428Z,1008.51
2016-03-24T10:36:37.430Z,1008.5
2016-03-24T10:37:37.432Z,1008.55
2016-03-24T10:38:37.452Z,1008.49
2016-03-24T10:39:37.454Z,1008.51
2016-03-24T10:40:37.457Z,1008.5
2016-03-24T10:41:37.474Z,1008.54
2016-03-24T10:42:37.478Z,1008.52
2016-03-24T10:43:37.480Z,1008.5
2016-03-24T10:44:37.482Z,1008.49
2016-03-24T10:45:37.501Z,1008.43
2016-03-24T10:46:37.504Z,1008.45
2016-03-24T10:47:37.506Z,1008.45
2016-03-24T10:48:37.524Z,1008.49
2016-03-24T10:49:37.527Z,1008.49
2016-03-24T10:50:37.530Z,1008.48
2016-03-24T10:51:37.532Z,1008.49
2016-03-24T10:52:37.551Z,1008.49
2016-03-24T10:53:37.554Z,1008.5
2016-03-24T10:54:37.557Z,1008.51
2016-03-24T10:55:37.575Z,1008.49
2016-03-24T10:56:37.578Z,1008.47
2016-03-24T10:57:37.581Z,1008.51
2016-03-24T10:58:37.598Z,1008.48
2016-03-24T10:59:37.601Z,1008.51
2016-03-24T11:00:37.603Z,1008.49
2016-03-24T11:01:37.623Z,1008.48
2016-03-24T11:02:37.626Z,1008.47
2016-03-24T11:03:37.628Z,1008.49
2016-03-24T11:04:37.631Z,1008.51
2016-03-24T11:05:37.649Z,1008.47
2016-03-24T11:06:37.652Z,1008.54
2016-03-24T11:07:37.655Z,1008.55
2016-03-24T11:08:37.657Z,1008.53
2016-03-24T11:09:37.674Z,1008.55
2016-03-24T11:10:37.677Z,1008.58
2016-03-24T11:11:37.680Z,1008.52
2016-03-24T11:12:37.683Z,1008.54
2016-03-24T11:13:37.702Z,1008.52
2016-03-24T11:14:37.704Z,1008.48
2016-03-24T11:15:37.707Z,1008.47
2016-03-24T11:16:37.709Z,1008.46
2016-03-24T11:17:37.728Z,1008.5
2016-03-24T11:18:37.730Z,1008.47
2016-03-24T11:19:37.733Z,1008.45
2016-03-24T11:20:37.751Z,1008.5
2016-03-24T11:21:37.754Z,1008.46
2016-03-24T11:22:37.757Z,1008.43
2016-03-24T11:23:37.759Z,1008.42
2016-03-24T11:24:37.779Z,1008.42
2016-03-24T11:25:37.781Z,1008.39
2016-03-24T11:26:37.783Z,1008.41
2016-03-24T11:27:37.802Z,1008.38
2016-03-24T11:28:37.804Z,1008.41
2016-03-24T11:29:37.806Z,1008.38
2016-03-24T11:30:37.810Z,1008.43
2016-03-24T11:31:37.828Z,1008.4
2016-03-24T11:32:37.831Z,1008.37
2016-03-24T11:33:37.834Z,1008.37
2016-03-24T11:34:37.836Z,1008.38
2016-03-24T11:35:37.855Z,1008.34
2016-03-24T11:36:37.857Z,1008.35
2016-03-24T11:37:37.860Z,1008.35
2016-03-24T11:38:37.878Z,1008.36
2016-03-24T11:39:37.881Z,1008.35
2016-03-24T11:40:37.883Z,1008.36
2016-03-24T11:41:37.902Z,1008.36
2016-03-24T11:42:37.905Z,1008.33
2016-03-24T11:43:37.907Z,1008.36
2016-03-24T11:44:37.910Z,1008.41
2016-03-24T11:45:37.975Z,1008.35
2016-03-24T11:46:37.930Z,1008.36
2016-03-24T11:47:37.934Z,1008.35
2016-03-24T11:48:37.936Z,1008.33
2016-03-24T11:49:37.954Z,1008.38
2016-03-24T11:50:37.957Z,1008.37
2016-03-24T11:51:37.959Z,1008.37
2016-03-24T11:52:37.962Z,1008.36
2016-03-24T11:53:37.981Z,1008.38
2016-03-24T11:54:37.984Z,1008.37
2016-03-24T11:55:37.987Z,1008.43
2016-03-24T11:56:38.004Z,1008.39
2016-03-24T11:57:38.007Z,1008.42
2016-03-24T11:58:38.010Z,1008.38
2016-03-24T11:59:38.012Z,1008.4
2016-03-24T12:00:38.031Z,1008.39
2016-03-24T12:01:38.034Z,1008.39
2016-03-24T12:02:38.037Z,1008.35
2016-03-24T12:03:38.055Z,1008.38
2016-03-24T12:04:38.058Z,1008.36
2016-03-24T12:05:38.060Z,1008.36
2016-03-24T12:06:38.078Z,1008.35
2016-03-24T12:07:38.081Z,1008.38
2016-03-24T12:08:38.083Z,1008.36
2016-03-24T12:09:38.087Z,1008.34
2016-03-24T12:10:38.089Z,1008.34
2016-03-24T12:11:38.107Z,1008.35
2016-03-24T12:12:38.110Z,1008.32